RPB7272 SKBO-SKRG
Flight info
| Callsign | RPB7272 |
|---|---|
| Flight time | 0h 26m |
| Altitude | 20000 |
| Route | TOBK4R VASIL W36 NIRSO NIRS3C |
| Aircraft | B738/M-SDE3FGHIRWY/S |
Departure
| Time | 2026-05-03 22:30 |
|---|---|
| Airport | El Dorado International Airport (SKBO) |
Arrival
| Time | 2026-05-03 22:56 |
|---|---|
| Airport | Jose Maria Córdova International Airport (SKRG) |
| Time | Latitude | Longitude | Altitude | Speed | Heading |
|---|---|---|---|---|---|
| 2026-05-03 21:50 | 4.69809 | -74.14362 | 8365 ft | 0 kts | 226° |
| 2026-05-03 22:18 | 4.69817 | -74.14354 | 8365 ft | 4 kts | 228° |
| 2026-05-03 22:18 | 4.69835 | -74.14333 | 8365 ft | 4 kts | 232° |
| 2026-05-03 22:18 | 4.69851 | -74.14311 | 8365 ft | 4 kts | 235° |
| 2026-05-03 22:18 | 4.69866 | -74.14289 | 8365 ft | 4 kts | 236° |
| 2026-05-03 22:19 | 4.69872 | -74.14281 | 8365 ft | 4 kts | 240° |
| 2026-05-03 22:19 | 4.69873 | -74.14306 | 8365 ft | 4 kts | 283° |
| 2026-05-03 22:19 | 4.69884 | -74.14330 | 8365 ft | 4 kts | 301° |
| 2026-05-03 22:19 | 4.69899 | -74.14350 | 8365 ft | 4 kts | 307° |
| 2026-05-03 22:20 | 4.69915 | -74.14372 | 8365 ft | 4 kts | 307° |
| 2026-05-03 22:20 | 4.69931 | -74.14393 | 8365 ft | 4 kts | 307° |
| 2026-05-03 22:20 | 4.69936 | -74.14400 | 8365 ft | 0 kts | 307° |
| 2026-05-03 22:24 | 4.69951 | -74.14419 | 8365 ft | 6 kts | 307° |
| 2026-05-03 22:24 | 4.69989 | -74.14471 | 8365 ft | 12 kts | 307° |
| 2026-05-03 22:25 | 4.70044 | -74.14544 | 8365 ft | 10 kts | 307° |
| 2026-05-03 22:25 | 4.70086 | -74.14599 | 8365 ft | 12 kts | 307° |
| 2026-05-03 22:25 | 4.70063 | -74.14677 | 8365 ft | 16 kts | 218° |
| 2026-05-03 22:25 | 4.69964 | -74.14752 | 8365 ft | 20 kts | 217° |
| 2026-05-03 22:26 | 4.69884 | -74.14811 | 8365 ft | 23 kts | 217° |
| 2026-05-03 22:26 | 4.69798 | -74.14869 | 8365 ft | 11 kts | 191° |
| 2026-05-03 22:26 | 4.69709 | -74.14785 | 8364 ft | 17 kts | 128° |
| 2026-05-03 22:26 | 4.69627 | -74.14678 | 8364 ft | 22 kts | 127° |
| 2026-05-03 22:27 | 4.69528 | -74.14545 | 8365 ft | 26 kts | 127° |
| 2026-05-03 22:27 | 4.69452 | -74.14445 | 8364 ft | 27 kts | 127° |
| 2026-05-03 22:27 | 4.69344 | -74.14302 | 8365 ft | 25 kts | 127° |
| 2026-05-03 22:27 | 4.69243 | -74.14169 | 8365 ft | 23 kts | 127° |
| 2026-05-03 22:28 | 4.69150 | -74.14072 | 8365 ft | 16 kts | 168° |
| 2026-05-03 22:28 | 4.69072 | -74.14122 | 8365 ft | 14 kts | 218° |
| 2026-05-03 22:28 | 4.69020 | -74.14212 | 8365 ft | 19 kts | 279° |
| 2026-05-03 22:28 | 4.69123 | -74.14370 | 8364 ft | 51 kts | 307° |
| 2026-05-03 22:29 | 4.69470 | -74.14829 | 8362 ft | 113 kts | 307° |
| 2026-05-03 22:29 | 4.70057 | -74.15604 | 8363 ft | 165 kts | 307° |
| 2026-05-03 22:29 | 4.70844 | -74.16642 | 8395 ft | 206 kts | 306° |
| 2026-05-03 22:29 | 4.71721 | -74.17799 | 8860 ft | 211 kts | 305° |
| 2026-05-03 22:30 | 4.72587 | -74.18948 | 9629 ft | 206 kts | 306° |
| 2026-05-03 22:30 | 4.73298 | -74.20269 | 9804 ft | 227 kts | 285° |
| 2026-05-03 22:30 | 4.73695 | -74.21843 | 9980 ft | 247 kts | 285° |
| 2026-05-03 22:30 | 4.74157 | -74.23567 | 10236 ft | 265 kts | 285° |
| 2026-05-03 22:31 | 4.74642 | -74.25446 | 10479 ft | 288 kts | 280° |
| 2026-05-03 22:31 | 4.74567 | -74.27478 | 11062 ft | 298 kts | 260° |
| 2026-05-03 22:31 | 4.74140 | -74.29528 | 11692 ft | 303 kts | 258° |
| 2026-05-03 22:31 | 4.73705 | -74.31606 | 11927 ft | 308 kts | 259° |
| 2026-05-03 22:32 | 4.73268 | -74.33732 | 11943 ft | 312 kts | 259° |
| 2026-05-03 22:32 | 4.72829 | -74.35868 | 11937 ft | 313 kts | 258° |
| 2026-05-03 22:32 | 4.72402 | -74.38003 | 12001 ft | 312 kts | 259° |
| 2026-05-03 22:32 | 4.71974 | -74.40145 | 12546 ft | 316 kts | 259° |
| 2026-05-03 22:33 | 4.71540 | -74.42311 | 13295 ft | 317 kts | 258° |
| 2026-05-03 22:33 | 4.71089 | -74.44484 | 13981 ft | 321 kts | 256° |
| 2026-05-03 22:33 | 4.70525 | -74.46665 | 14624 ft | 326 kts | 254° |
| 2026-05-03 22:33 | 4.69910 | -74.48871 | 15285 ft | 330 kts | 253° |
| 2026-05-03 22:34 | 4.69292 | -74.51093 | 15956 ft | 333 kts | 254° |
| 2026-05-03 22:34 | 4.68684 | -74.53321 | 16576 ft | 337 kts | 254° |
| 2026-05-03 22:34 | 4.68067 | -74.55603 | 17170 ft | 342 kts | 254° |
| 2026-05-03 22:34 | 4.67530 | -74.57938 | 17769 ft | 347 kts | 265° |
| 2026-05-03 22:35 | 4.67764 | -74.60349 | 18301 ft | 352 kts | 288° |
| 2026-05-03 22:35 | 4.68909 | -74.62526 | 18688 ft | 361 kts | 311° |
| 2026-05-03 22:35 | 4.70894 | -74.64121 | 18799 ft | 374 kts | 336° |
| 2026-05-03 22:35 | 4.73403 | -74.64909 | 18948 ft | 386 kts | 349° |
| 2026-05-03 22:36 | 4.76076 | -74.65453 | 19163 ft | 398 kts | 351° |
| 2026-05-03 22:36 | 4.78828 | -74.65986 | 19490 ft | 406 kts | 351° |
| 2026-05-03 22:36 | 4.81598 | -74.66557 | 19944 ft | 407 kts | 350° |
| 2026-05-03 22:36 | 4.84322 | -74.67317 | 20111 ft | 410 kts | 337° |
| 2026-05-03 22:37 | 4.86742 | -74.68856 | 20557 ft | 415 kts | 322° |
| 2026-05-03 22:37 | 4.88987 | -74.70680 | 21086 ft | 416 kts | 322° |
| 2026-05-03 22:37 | 4.91238 | -74.72504 | 21592 ft | 417 kts | 322° |
| 2026-05-03 22:37 | 4.93481 | -74.74363 | 22025 ft | 420 kts | 316° |
| 2026-05-03 22:38 | 4.95231 | -74.76716 | 22407 ft | 424 kts | 298° |
| 2026-05-03 22:38 | 4.96555 | -74.79360 | 22828 ft | 427 kts | 296° |
| 2026-05-03 22:38 | 4.97832 | -74.82056 | 23219 ft | 429 kts | 295° |
| 2026-05-03 22:38 | 4.99107 | -74.84778 | 23564 ft | 432 kts | 295° |
| 2026-05-03 22:39 | 5.00400 | -74.87517 | 23837 ft | 436 kts | 295° |
| 2026-05-03 22:39 | 5.01722 | -74.90286 | 23832 ft | 444 kts | 296° |
| 2026-05-03 22:39 | 5.03078 | -74.93096 | 23881 ft | 449 kts | 296° |
| 2026-05-03 22:39 | 5.04444 | -74.95906 | 23867 ft | 447 kts | 296° |
| 2026-05-03 22:40 | 5.05800 | -74.98695 | 23878 ft | 440 kts | 296° |
| 2026-05-03 22:40 | 5.07122 | -75.01407 | 23876 ft | 425 kts | 296° |
| 2026-05-03 22:40 | 5.08400 | -75.04032 | 23899 ft | 417 kts | 296° |
| 2026-05-03 22:40 | 5.09671 | -75.06645 | 23909 ft | 416 kts | 296° |
| 2026-05-03 22:41 | 5.10940 | -75.09253 | 23861 ft | 416 kts | 296° |
| 2026-05-03 22:41 | 5.12205 | -75.11854 | 23511 ft | 413 kts | 296° |
| 2026-05-03 22:41 | 5.13459 | -75.14435 | 23135 ft | 410 kts | 296° |
| 2026-05-03 22:41 | 5.14703 | -75.16993 | 22738 ft | 406 kts | 296° |
| 2026-05-03 22:42 | 5.16069 | -75.19458 | 22300 ft | 403 kts | 308° |
| 2026-05-03 22:42 | 5.17881 | -75.21598 | 21864 ft | 400 kts | 313° |
| 2026-05-03 22:42 | 5.19754 | -75.23652 | 21412 ft | 399 kts | 313° |
| 2026-05-03 22:42 | 5.21630 | -75.25697 | 20979 ft | 397 kts | 313° |
| 2026-05-03 22:43 | 5.23481 | -75.27737 | 20556 ft | 395 kts | 313° |
| 2026-05-03 22:43 | 5.25311 | -75.29783 | 20129 ft | 393 kts | 313° |
| 2026-05-03 22:43 | 5.27121 | -75.31825 | 19718 ft | 390 kts | 312° |
| 2026-05-03 22:43 | 5.28913 | -75.33855 | 19306 ft | 388 kts | 312° |
| 2026-05-03 22:44 | 5.30697 | -75.35876 | 18892 ft | 386 kts | 312° |
| 2026-05-03 22:44 | 5.32492 | -75.37867 | 18477 ft | 382 kts | 317° |
| 2026-05-03 22:44 | 5.34669 | -75.39361 | 17911 ft | 381 kts | 338° |
| 2026-05-03 22:44 | 5.37195 | -75.40048 | 17584 ft | 372 kts | 356° |
| 2026-05-03 22:45 | 5.39740 | -75.40247 | 17370 ft | 363 kts | 359° |
| 2026-05-03 22:45 | 5.42237 | -75.40365 | 17201 ft | 354 kts | 360° |
| 2026-05-03 22:45 | 5.44658 | -75.40463 | 17036 ft | 342 kts | 360° |
| 2026-05-03 22:45 | 5.46984 | -75.40563 | 16883 ft | 328 kts | 359° |
| 2026-05-03 22:46 | 5.49240 | -75.40669 | 16582 ft | 323 kts | 359° |
| 2026-05-03 22:46 | 5.51392 | -75.40777 | 16293 ft | 321 kts | 359° |
| 2026-05-03 22:46 | 5.53623 | -75.40893 | 15979 ft | 321 kts | 359° |
| 2026-05-03 22:46 | 5.55846 | -75.41013 | 15652 ft | 320 kts | 359° |
| 2026-05-03 22:47 | 5.58033 | -75.41132 | 15351 ft | 318 kts | 359° |
| 2026-05-03 22:47 | 5.60235 | -75.41262 | 15020 ft | 316 kts | 358° |
| 2026-05-03 22:47 | 5.62455 | -75.41387 | 14718 ft | 315 kts | 358° |
| 2026-05-03 22:47 | 5.64605 | -75.41501 | 14406 ft | 313 kts | 359° |
| 2026-05-03 22:48 | 5.66773 | -75.41618 | 14088 ft | 311 kts | 358° |
| 2026-05-03 22:48 | 5.68925 | -75.41735 | 13882 ft | 307 kts | 358° |
| 2026-05-03 22:48 | 5.71025 | -75.41853 | 13745 ft | 299 kts | 358° |
| 2026-05-03 22:48 | 5.73081 | -75.41967 | 13599 ft | 293 kts | 358° |
| 2026-05-03 22:49 | 5.75088 | -75.42078 | 13491 ft | 286 kts | 358° |
| 2026-05-03 22:49 | 5.77055 | -75.42187 | 13360 ft | 279 kts | 358° |
| 2026-05-03 22:49 | 5.78987 | -75.42249 | 13094 ft | 277 kts | 1° |
| 2026-05-03 22:49 | 5.80908 | -75.42240 | 12838 ft | 275 kts | 1° |
| 2026-05-03 22:50 | 5.82822 | -75.42226 | 12573 ft | 274 kts | 1° |
| 2026-05-03 22:50 | 5.84726 | -75.42219 | 12298 ft | 274 kts | 1° |
| 2026-05-03 22:50 | 5.86633 | -75.42218 | 12013 ft | 273 kts | 1° |
| 2026-05-03 22:50 | 5.88530 | -75.42219 | 11702 ft | 273 kts | 1° |
| 2026-05-03 22:51 | 5.89810 | -75.42221 | 11493 ft | 274 kts | 1° |
| 2026-05-03 22:51 | 5.91794 | -75.42226 | 11157 ft | 272 kts | 1° |
| 2026-05-03 22:51 | 5.93644 | -75.42232 | 10861 ft | 261 kts | 0° |
| 2026-05-03 22:51 | 5.95420 | -75.42238 | 10547 ft | 249 kts | 0° |
| 2026-05-03 22:52 | 5.97117 | -75.42243 | 10259 ft | 238 kts | 0° |
| 2026-05-03 22:52 | 5.98744 | -75.42248 | 9957 ft | 230 kts | 0° |
| 2026-05-03 22:52 | 6.00303 | -75.42254 | 9694 ft | 218 kts | 0° |
| 2026-05-03 22:52 | 6.01781 | -75.42259 | 9483 ft | 206 kts | 0° |
| 2026-05-03 22:53 | 6.03194 | -75.42263 | 9232 ft | 200 kts | 0° |
| 2026-05-03 22:53 | 6.04581 | -75.42268 | 8975 ft | 200 kts | 0° |
| 2026-05-03 22:53 | 6.05966 | -75.42272 | 8709 ft | 197 kts | 360° |
| 2026-05-03 22:53 | 6.07322 | -75.42277 | 8448 ft | 192 kts | 360° |
| 2026-05-03 22:54 | 6.08603 | -75.42281 | 8205 ft | 179 kts | 0° |
| 2026-05-03 22:54 | 6.09841 | -75.42285 | 8012 ft | 176 kts | 360° |
| 2026-05-03 22:54 | 6.11061 | -75.42290 | 7760 ft | 174 kts | 360° |
| 2026-05-03 22:54 | 6.12268 | -75.42294 | 7536 ft | 175 kts | 360° |
| 2026-05-03 22:55 | 6.13484 | -75.42298 | 7311 ft | 175 kts | 359° |
| 2026-05-03 22:55 | 6.14699 | -75.42301 | 7076 ft | 174 kts | 360° |
| 2026-05-03 22:55 | 6.15849 | -75.42310 | 6981 ft | 141 kts | 359° |
| 2026-05-03 22:55 | 6.16608 | -75.42314 | 6998 ft | 77 kts | 359° |
| 2026-05-03 22:56 | 6.16990 | -75.42349 | 7013 ft | 45 kts | 341° |
| 2026-05-03 22:56 | 6.17163 | -75.42442 | 7016 ft | 20 kts | 330° |
| 2026-05-03 22:56 | 6.17193 | -75.42504 | 7016 ft | 7 kts | 266° |
| 2026-05-03 22:56 | 6.17190 | -75.42553 | 7016 ft | 7 kts | 268° |
| 2026-05-03 22:57 | 6.17174 | -75.42607 | 7015 ft | 10 kts | 221° |
| 2026-05-03 22:57 | 6.17106 | -75.42616 | 7015 ft | 10 kts | 183° |
| 2026-05-03 22:57 | 6.17042 | -75.42648 | 7015 ft | 11 kts | 219° |
| 2026-05-03 22:57 | 6.16982 | -75.42697 | 7015 ft | 11 kts | 223° |
| 2026-05-03 22:58 | 6.16933 | -75.42761 | 7015 ft | 12 kts | 242° |
| 2026-05-03 22:58 | 6.16911 | -75.42826 | 7015 ft | 6 kts | 255° |
| 2026-05-03 22:58 | 6.16900 | -75.42869 | 7019 ft | 6 kts | 258° |
| 2026-05-03 22:58 | 6.16903 | -75.42895 | 7015 ft | 0 kts | 308° |
| 2026-05-03 22:59 | 6.16907 | -75.42898 | 7015 ft | 3 kts | 325° |
| 2026-05-03 22:59 | 6.16931 | -75.42906 | 7015 ft | 4 kts | 345° |
| 2026-05-03 22:59 | 6.16940 | -75.42909 | 7015 ft | 0 kts | 346° |